createdAt,value
2019-02-14T00:00:25.728Z,19.37
2019-02-14T00:03:14.932Z,18.02
2019-02-14T00:06:03.676Z,22.17
2019-02-14T00:08:52.941Z,18.82
2019-02-14T00:11:42.833Z,18.23
2019-02-14T00:14:31.834Z,20.50
2019-02-14T00:17:21.677Z,19.57
2019-02-14T00:20:11.779Z,19.70
2019-02-14T00:23:00.728Z,19.15
2019-02-14T00:25:50.096Z,18.30
2019-02-14T00:28:39.182Z,20.15
2019-02-14T00:31:28.637Z,20.02
2019-02-14T00:34:18.213Z,20.50
2019-02-14T00:37:07.285Z,19.05
2019-02-14T00:39:56.592Z,18.48
2019-02-14T00:42:45.719Z,19.00
2019-02-14T00:45:34.833Z,20.55
2019-02-14T00:48:23.261Z,20.20
2019-02-14T00:51:13.016Z,20.70
2019-02-14T00:54:01.834Z,21.40
2019-02-14T00:56:51.039Z,22.17
2019-02-14T00:59:40.295Z,21.97
2019-02-14T01:02:29.787Z,21.52
2019-02-14T01:05:18.511Z,20.23
2019-02-14T01:08:07.466Z,21.12
2019-02-14T01:10:56.415Z,22.60
2019-02-14T01:13:45.429Z,21.82
2019-02-14T01:16:34.595Z,22.90
2019-02-14T01:19:23.861Z,24.20
2019-02-14T01:22:13.339Z,24.15
2019-02-14T01:25:02.658Z,23.55
2019-02-14T01:27:51.779Z,24.02
2019-02-14T01:30:41.043Z,23.27
2019-02-14T01:33:30.407Z,24.65
2019-02-14T01:36:19.692Z,23.80
2019-02-14T01:39:08.659Z,24.45
2019-02-14T01:41:58.327Z,23.77
2019-02-14T01:44:46.796Z,24.18
2019-02-14T01:47:35.644Z,25.17
2019-02-14T01:50:24.739Z,25.30
2019-02-14T01:53:14.072Z,25.68
2019-02-14T01:56:03.655Z,26.10
2019-02-14T01:58:52.108Z,25.17
2019-02-14T02:01:40.860Z,25.95
2019-02-14T02:04:29.428Z,25.90
2019-02-14T02:07:18.678Z,26.55
2019-02-14T02:10:11.812Z,24.60
2019-02-14T02:13:00.799Z,24.87
2019-02-14T02:15:49.724Z,27.32
2019-02-14T02:18:39.736Z,24.90
2019-02-14T02:21:29.223Z,26.82
2019-02-14T02:24:18.499Z,25.82
2019-02-14T02:27:07.353Z,26.45
2019-02-14T02:29:56.724Z,27.50
2019-02-14T02:32:45.590Z,28.02
2019-02-14T02:35:34.696Z,26.68
2019-02-14T02:38:23.713Z,26.77
2019-02-14T02:41:12.985Z,27.82
2019-02-14T02:44:02.544Z,25.12
2019-02-14T02:46:51.823Z,26.60
2019-02-14T02:49:41.081Z,26.73
2019-02-14T02:52:30.474Z,27.32
2019-02-14T02:55:19.437Z,25.57
2019-02-14T02:58:08.805Z,26.60
2019-02-14T03:00:58.397Z,26.07
2019-02-14T03:03:47.650Z,27.40
2019-02-14T03:06:37.127Z,27.25
2019-02-14T03:09:25.936Z,26.77
2019-02-14T03:12:15.276Z,27.60
2019-02-14T03:15:04.755Z,27.50
2019-02-14T03:17:53.894Z,25.65
2019-02-14T03:20:43.124Z,27.58
2019-02-14T03:23:31.825Z,26.75
2019-02-14T03:26:21.394Z,28.07
2019-02-14T03:29:10.511Z,27.00
2019-02-14T03:31:59.421Z,26.60
2019-02-14T03:34:48.820Z,26.68
2019-02-14T03:37:38.981Z,28.25
2019-02-14T03:40:27.919Z,25.55
2019-02-14T03:43:16.608Z,27.35
2019-02-14T03:46:05.548Z,27.07
2019-02-14T03:48:54.941Z,27.73
2019-02-14T03:51:44.422Z,26.48
2019-02-14T03:54:33.166Z,27.05
2019-02-14T03:57:22.744Z,28.65
2019-02-14T04:00:18.238Z,27.20
2019-02-14T04:03:07.689Z,28.05
2019-02-14T04:05:56.507Z,28.25
2019-02-14T04:08:45.046Z,28.42
2019-02-14T04:11:33.970Z,28.70
2019-02-14T04:14:23.195Z,28.10
2019-02-14T04:17:12.646Z,27.22
2019-02-14T04:20:02.104Z,29.45
2019-02-14T04:22:51.595Z,27.58
2019-02-14T04:25:40.882Z,27.95
2019-02-14T04:28:30.438Z,29.65
2019-02-14T04:31:18.940Z,27.58
2019-02-14T04:34:08.061Z,27.58
2019-02-14T04:36:57.842Z,28.92
2019-02-14T04:39:48.731Z,29.00
2019-02-14T04:42:38.428Z,27.55
2019-02-14T04:45:27.286Z,29.40
2019-02-14T04:48:16.835Z,29.57
2019-02-14T04:51:06.236Z,27.30
2019-02-14T04:53:55.911Z,27.02
2019-02-14T04:56:45.452Z,30.02
2019-02-14T04:59:34.541Z,29.60
2019-02-14T05:02:23.624Z,29.95
2019-02-14T05:05:12.601Z,28.65
2019-02-14T05:08:01.743Z,26.93
2019-02-14T05:10:50.369Z,27.85
2019-02-14T05:13:39.164Z,28.17
2019-02-14T05:16:27.980Z,29.27
2019-02-14T05:19:17.696Z,28.80
2019-02-14T05:22:07.380Z,28.32
2019-02-14T05:24:56.414Z,26.82
2019-02-14T05:27:45.614Z,28.90
2019-02-14T05:30:34.049Z,28.65
2019-02-14T05:33:23.436Z,29.30
2019-02-14T05:36:12.559Z,29.10
2019-02-14T05:39:01.257Z,31.35
2019-02-14T05:41:50.430Z,28.32
2019-02-14T05:44:39.267Z,30.25
2019-02-14T05:47:28.847Z,29.30
2019-02-14T05:50:17.775Z,28.75
2019-02-14T05:53:07.006Z,28.65
2019-02-14T05:55:56.285Z,29.75
2019-02-14T05:58:45.728Z,31.07
2019-02-14T06:01:34.867Z,28.45
2019-02-14T06:04:23.653Z,29.45
2019-02-14T06:07:12.511Z,29.05
2019-02-14T06:10:01.504Z,29.90
2019-02-14T06:12:50.246Z,31.10
2019-02-14T06:15:39.492Z,30.50
2019-02-14T06:18:28.775Z,29.70
2019-02-14T06:21:17.753Z,29.77
2019-02-14T06:24:06.594Z,29.07
2019-02-14T06:26:55.619Z,29.18
2019-02-14T06:29:44.725Z,28.23
2019-02-14T06:32:34.202Z,28.65
2019-02-14T06:35:23.351Z,30.57
2019-02-14T06:38:12.742Z,31.35
2019-02-14T06:41:03.632Z,29.90
2019-02-14T06:43:52.910Z,30.17
2019-02-14T06:46:41.930Z,30.48
2019-02-14T06:49:31.314Z,29.85
2019-02-14T06:52:20.213Z,29.90
2019-02-14T06:55:10.199Z,29.20
2019-02-14T06:57:59.774Z,28.38
2019-02-14T07:00:48.296Z,28.85
2019-02-14T07:03:37.589Z,29.87
2019-02-14T07:06:27.000Z,29.40
2019-02-14T07:09:15.925Z,29.77
2019-02-14T07:12:04.862Z,28.65
2019-02-14T07:14:54.158Z,30.17
2019-02-14T07:17:42.826Z,28.83
2019-02-14T07:20:31.953Z,29.82
2019-02-14T07:23:20.677Z,30.27
2019-02-14T07:26:09.586Z,29.10
2019-02-14T07:28:58.355Z,28.77
2019-02-14T07:31:47.407Z,29.63
2019-02-14T07:34:36.583Z,29.90
2019-02-14T07:37:27.019Z,29.10
2019-02-14T07:40:16.758Z,28.73
2019-02-14T07:43:06.034Z,30.55
2019-02-14T07:45:54.889Z,29.23
2019-02-14T07:48:43.755Z,28.38
2019-02-14T07:51:33.143Z,27.00
2019-02-14T07:54:22.599Z,28.57
2019-02-14T07:57:11.729Z,29.15
2019-02-14T08:00:01.339Z,29.35
2019-02-14T08:02:50.303Z,27.93
2019-02-14T08:05:38.869Z,28.35
2019-02-14T08:08:28.432Z,29.18
2019-02-14T08:11:17.352Z,29.85
2019-02-14T08:14:06.664Z,28.32
2019-02-14T08:16:55.100Z,29.27
2019-02-14T08:19:44.080Z,27.77
2019-02-14T08:22:33.353Z,27.98
2019-02-14T08:25:22.466Z,29.63
2019-02-14T08:28:11.784Z,28.75
2019-02-14T08:31:00.202Z,28.25
2019-02-14T08:33:49.608Z,28.92
2019-02-14T08:36:38.633Z,28.45
2019-02-14T08:39:27.836Z,28.60
2019-02-14T08:42:17.020Z,28.87
2019-02-14T08:45:10.456Z,27.87
2019-02-14T08:47:59.163Z,29.37
2019-02-14T08:50:47.923Z,28.87
2019-02-14T08:53:36.664Z,27.73
2019-02-14T08:56:25.728Z,29.55
2019-02-14T08:59:14.567Z,27.10
2019-02-14T09:02:04.061Z,27.32
2019-02-14T09:04:53.420Z,27.00
2019-02-14T09:07:42.459Z,26.42
2019-02-14T09:10:32.435Z,27.05
2019-02-14T09:13:21.836Z,29.05
2019-02-14T09:16:10.668Z,28.80
2019-02-14T09:19:00.211Z,28.47
2019-02-14T09:21:49.044Z,29.27
2019-02-14T09:24:37.792Z,26.68
2019-02-14T09:27:26.516Z,27.98
2019-02-14T09:30:16.532Z,28.60
2019-02-14T09:33:05.696Z,27.10
2019-02-14T09:35:54.939Z,29.00
2019-02-14T09:38:43.936Z,27.98
2019-02-14T09:41:33.343Z,28.27
2019-02-14T09:44:22.778Z,28.47
2019-02-14T09:47:11.940Z,28.10
2019-02-14T09:50:01.109Z,29.25
2019-02-14T09:52:50.338Z,27.80
2019-02-14T09:55:39.922Z,28.55
2019-02-14T09:58:29.199Z,27.25
2019-02-14T10:01:18.229Z,29.72
2019-02-14T10:04:07.670Z,28.10
2019-02-14T10:06:56.527Z,26.97
2019-02-14T10:09:46.403Z,28.52
2019-02-14T10:12:35.485Z,26.82
2019-02-14T10:15:24.434Z,27.82
2019-02-14T10:18:13.600Z,26.80
2019-02-14T10:21:02.706Z,27.98
2019-02-14T10:23:52.090Z,28.30
2019-02-14T10:26:40.856Z,26.70
2019-02-14T10:29:30.160Z,29.05
2019-02-14T10:32:19.519Z,30.70
2019-02-14T10:35:09.010Z,28.52
2019-02-14T10:37:57.949Z,25.80
2019-02-14T10:40:47.444Z,29.30
2019-02-14T10:43:37.122Z,27.07
2019-02-14T10:46:26.522Z,26.90
2019-02-14T10:49:15.651Z,27.30
2019-02-14T10:52:04.443Z,26.17
2019-02-14T10:54:53.896Z,26.87
2019-02-14T10:57:43.175Z,25.75
2019-02-14T11:00:32.329Z,28.20
2019-02-14T11:03:21.705Z,26.17
2019-02-14T11:06:10.924Z,27.58
2019-02-14T11:09:00.244Z,26.70
2019-02-14T11:11:48.822Z,26.62
2019-02-14T11:14:38.492Z,26.07
2019-02-14T11:17:27.763Z,26.87
2019-02-14T11:20:18.018Z,26.17
2019-02-14T11:23:07.160Z,28.67
2019-02-14T11:25:56.267Z,26.50
2019-02-14T11:28:45.026Z,24.27
2019-02-14T11:31:34.775Z,24.70
2019-02-14T11:34:24.694Z,26.42
2019-02-14T11:37:13.760Z,22.70
2019-02-14T11:40:03.138Z,24.00
2019-02-14T11:42:52.724Z,24.20
2019-02-14T11:45:41.978Z,23.07
2019-02-14T11:48:31.075Z,22.77
2019-02-14T11:51:20.105Z,20.88
2019-02-14T11:54:09.680Z,20.48
2019-02-14T11:56:58.878Z,20.72
2019-02-14T11:59:48.115Z,22.10
2019-02-14T12:02:37.933Z,21.97
2019-02-14T12:05:27.986Z,23.07
2019-02-14T12:08:17.088Z,21.68
2019-02-14T12:11:06.527Z,20.60
2019-02-14T12:13:55.795Z,17.70
2019-02-14T12:16:44.951Z,19.10
2019-02-14T12:19:34.446Z,18.90
2019-02-14T12:22:23.926Z,17.35
2019-02-14T12:25:20.662Z,18.42
2019-02-14T12:28:09.187Z,18.60
2019-02-14T12:36:35.433Z,16.90
2019-02-14T12:42:13.140Z,16.75
2019-02-14T12:45:02.670Z,17.30
2019-02-14T12:47:51.642Z,16.07
2019-02-14T12:53:28.977Z,16.12
2019-02-14T12:56:18.215Z,15.20
2019-02-14T12:59:07.895Z,15.00
2019-02-14T13:01:57.263Z,15.65
2019-02-14T13:04:47.125Z,13.90
2019-02-14T13:07:36.200Z,14.60
2019-02-14T13:10:25.289Z,14.50
2019-02-14T13:13:14.226Z,13.60
2019-02-14T13:16:03.108Z,13.15
2019-02-14T15:25:26.608Z,10.30
2019-02-14T15:33:52.029Z,10.80
2019-02-14T15:36:41.484Z,11.90
2019-02-14T15:39:30.533Z,11.00
2019-02-14T15:42:20.240Z,10.60
2019-02-14T15:45:10.030Z,11.88
2019-02-14T15:47:59.024Z,12.68
2019-02-14T15:50:48.039Z,11.35
2019-02-14T15:53:37.338Z,11.60
2019-02-14T15:56:27.283Z,11.30
2019-02-14T15:59:18.917Z,10.93
2019-02-14T16:02:08.460Z,11.45
2019-02-14T16:04:58.072Z,12.03
2019-02-14T16:07:47.424Z,11.78
2019-02-14T16:10:36.510Z,11.48
2019-02-14T16:13:25.381Z,11.60
2019-02-14T16:16:14.844Z,11.53
2019-02-14T16:19:03.841Z,12.73
2019-02-14T16:21:54.349Z,11.33
2019-02-14T16:24:44.583Z,11.65
2019-02-14T16:27:33.766Z,11.55
2019-02-14T16:30:22.934Z,11.70
2019-02-14T16:33:11.450Z,11.90
2019-02-14T16:36:00.643Z,11.35
2019-02-14T16:38:49.471Z,11.60
2019-02-14T16:41:38.983Z,11.90
2019-02-14T16:44:28.444Z,12.47
2019-02-14T16:47:17.827Z,11.88
2019-02-14T16:50:11.157Z,11.63
2019-02-14T16:53:00.102Z,12.15
2019-02-14T16:55:49.836Z,12.03
2019-02-14T16:58:39.234Z,12.40
2019-02-14T17:01:28.667Z,11.30
2019-02-14T17:04:18.874Z,14.28
2019-02-14T17:07:08.039Z,11.85
2019-02-14T17:09:57.150Z,11.73
2019-02-14T17:12:46.480Z,11.65
2019-02-14T17:15:35.743Z,11.35
2019-02-14T17:18:25.003Z,12.65
2019-02-14T17:21:14.285Z,11.30
2019-02-14T17:24:03.387Z,11.73
2019-02-14T17:26:52.218Z,11.30
2019-02-14T17:29:41.287Z,12.25
2019-02-14T17:32:30.849Z,12.80
2019-02-14T17:35:19.921Z,12.93
2019-02-14T17:38:08.394Z,12.35
2019-02-14T17:40:57.538Z,11.73
2019-02-14T17:43:46.112Z,12.13
2019-02-14T17:46:35.554Z,11.75
2019-02-14T17:49:24.928Z,12.40
2019-02-14T17:52:14.404Z,13.25
2019-02-14T17:55:03.098Z,12.63
2019-02-14T17:57:52.333Z,13.18
2019-02-14T18:00:42.325Z,13.20
2019-02-14T18:03:31.352Z,13.00
2019-02-14T18:06:20.339Z,13.83
2019-02-14T18:09:09.477Z,12.47
2019-02-14T18:11:58.567Z,12.85
2019-02-14T18:14:47.215Z,12.65
2019-02-14T18:17:36.292Z,12.65
2019-02-14T18:20:25.856Z,12.78
2019-02-14T18:23:14.706Z,12.40
2019-02-14T18:26:03.798Z,13.03
2019-02-14T18:28:52.878Z,12.95
2019-02-14T18:31:42.326Z,11.63
2019-02-14T18:34:31.990Z,13.25
2019-02-14T18:37:22.820Z,12.73
2019-02-14T18:40:13.097Z,13.62
2019-02-14T18:43:02.787Z,12.28
2019-02-14T18:45:52.356Z,14.90
2019-02-14T18:48:41.636Z,12.18
2019-02-14T18:51:30.501Z,12.88
2019-02-14T18:54:19.574Z,12.82
2019-02-14T18:57:08.247Z,13.72
2019-02-14T18:59:57.397Z,15.35
2019-02-14T19:02:46.232Z,12.45
2019-02-14T19:05:35.325Z,12.63
2019-02-14T19:08:24.597Z,14.13
2019-02-14T19:11:15.414Z,12.33
2019-02-14T19:14:05.403Z,11.55
2019-02-14T19:16:54.843Z,12.78
2019-02-14T19:19:43.442Z,13.32
2019-02-14T19:22:32.771Z,13.28
2019-02-14T19:25:21.397Z,12.43
2019-02-14T19:28:10.620Z,12.73
2019-02-14T19:30:59.650Z,13.13
2019-02-14T19:33:49.143Z,11.53
2019-02-14T19:36:38.706Z,13.20
2019-02-14T19:39:27.948Z,13.72
2019-02-14T19:42:17.445Z,13.25
2019-02-14T19:45:12.002Z,13.45
2019-02-14T19:48:01.517Z,11.85
2019-02-14T19:50:52.608Z,13.22
2019-02-14T19:53:41.995Z,12.55
2019-02-14T19:56:31.408Z,14.65
2019-02-14T19:59:20.538Z,12.60
2019-02-14T20:02:10.020Z,13.83
2019-02-14T20:04:59.257Z,13.30
2019-02-14T20:07:48.651Z,13.85
2019-02-14T20:10:37.558Z,12.82
2019-02-14T20:13:26.816Z,14.05
2019-02-14T20:16:15.775Z,13.62
2019-02-14T20:19:05.154Z,13.72
2019-02-14T20:21:53.573Z,17.45
2019-02-14T20:24:42.752Z,14.38
2019-02-14T20:27:32.432Z,13.68
2019-02-14T20:30:21.340Z,13.45
2019-02-14T20:33:10.235Z,14.53
2019-02-14T20:35:59.389Z,18.42
2019-02-14T20:38:48.567Z,15.50
2019-02-14T20:41:45.324Z,15.58
2019-02-14T20:44:29.262Z,14.58
2019-02-14T20:47:18.936Z,17.65
2019-02-14T20:50:13.969Z,13.08
2019-02-14T20:53:03.136Z,14.73
2019-02-14T20:55:52.050Z,13.50
2019-02-14T20:58:43.289Z,12.60
2019-02-14T21:01:32.175Z,21.97
2019-02-14T21:04:22.953Z,12.25
2019-02-14T21:07:12.305Z,16.40
2019-02-14T21:10:03.439Z,15.98
2019-02-14T21:12:52.395Z,12.13
2019-02-14T21:15:41.426Z,14.18
2019-02-14T21:18:30.728Z,16.35
2019-02-14T21:21:19.696Z,18.00
2019-02-14T21:24:08.970Z,14.30
2019-02-14T21:26:58.047Z,13.85
2019-02-14T21:29:47.381Z,13.40
2019-02-14T21:32:36.601Z,12.35
2019-02-14T21:35:25.268Z,11.50
2019-02-14T21:38:15.226Z,12.28
2019-02-14T21:41:04.288Z,39.27
2019-02-14T21:43:53.655Z,11.60
2019-02-14T21:46:42.994Z,12.28
2019-02-14T21:49:32.705Z,12.15
2019-02-14T21:52:22.123Z,12.47
2019-02-14T21:55:13.519Z,12.53
2019-02-14T21:58:05.593Z,11.93
2019-02-14T22:00:55.513Z,11.45
2019-02-14T22:03:44.867Z,17.02
2019-02-14T22:06:34.114Z,12.88
2019-02-14T22:09:23.419Z,13.15
2019-02-14T22:12:12.801Z,11.48
2019-02-14T22:15:02.035Z,12.55
2019-02-14T22:17:51.180Z,14.58
2019-02-14T22:20:40.087Z,12.13
2019-02-14T22:23:29.464Z,14.18
2019-02-14T22:26:18.512Z,15.32
2019-02-14T22:29:07.708Z,16.20
2019-02-14T22:31:57.370Z,16.50
2019-02-14T22:34:47.354Z,17.12
2019-02-14T22:37:36.581Z,17.15
2019-02-14T22:40:26.122Z,13.45
2019-02-14T22:43:15.244Z,13.25
2019-02-14T22:46:04.126Z,13.32
2019-02-14T22:48:52.840Z,12.43
2019-02-14T22:51:42.061Z,12.00
2019-02-14T22:54:31.231Z,14.28
2019-02-14T22:57:20.061Z,14.98
2019-02-14T23:00:32.473Z,18.30
2019-02-14T23:03:21.578Z,13.15
2019-02-14T23:06:10.927Z,14.68
2019-02-14T23:08:59.923Z,15.00
2019-02-14T23:11:49.161Z,20.50
2019-02-14T23:14:38.325Z,15.28
2019-02-14T23:17:27.466Z,13.70
2019-02-14T23:20:16.058Z,14.10
2019-02-14T23:23:04.534Z,13.62
2019-02-14T23:25:53.870Z,12.10
2019-02-14T23:28:43.204Z,13.68
2019-02-14T23:31:32.611Z,13.83
2019-02-14T23:34:21.984Z,14.90
2019-02-14T23:37:11.058Z,16.15
2019-02-14T23:40:00.312Z,12.88
2019-02-14T23:42:49.068Z,18.17
2019-02-14T23:45:38.142Z,12.10
2019-02-14T23:48:27.506Z,12.13
2019-02-14T23:51:16.792Z,17.05
2019-02-14T23:54:05.725Z,12.80
2019-02-14T23:56:54.914Z,12.90
2019-02-14T23:59:43.972Z,11.93
